createdAt,value
2022-11-09T00:00:20.277Z,10.43
2022-11-09T00:03:07.914Z,8.05
2022-11-09T00:05:59.587Z,10.00
2022-11-09T00:08:46.992Z,10.93
2022-11-09T00:11:34.121Z,6.70
2022-11-09T00:14:21.745Z,8.80
2022-11-09T00:17:09.131Z,7.75
2022-11-09T00:19:56.612Z,6.87
2022-11-09T00:22:44.005Z,7.28
2022-11-09T00:25:32.162Z,10.20
2022-11-09T00:28:19.245Z,9.75
2022-11-09T00:31:08.703Z,10.30
2022-11-09T00:33:57.749Z,9.25
2022-11-09T00:36:45.387Z,10.85
2022-11-09T00:39:32.621Z,10.58
2022-11-09T00:42:19.945Z,12.05
2022-11-09T00:45:07.957Z,14.95
2022-11-09T00:47:55.380Z,11.88
2022-11-09T00:50:42.965Z,10.08
2022-11-09T00:53:32.027Z,10.93
2022-11-09T00:56:19.472Z,10.28
2022-11-09T00:59:06.984Z,9.30
2022-11-09T01:01:54.649Z,11.08
2022-11-09T01:04:41.764Z,10.90
2022-11-09T01:07:29.028Z,10.48
2022-11-09T01:10:16.474Z,11.65
2022-11-09T01:13:04.123Z,10.68
2022-11-09T01:15:53.803Z,13.35
2022-11-09T01:18:41.552Z,11.70
2022-11-09T01:21:29.396Z,14.90
2022-11-09T01:24:17.146Z,12.40
2022-11-09T01:27:04.642Z,16.55
2022-11-09T01:29:51.757Z,14.70
2022-11-09T01:32:39.323Z,14.73
2022-11-09T01:35:26.665Z,11.73
2022-11-09T01:38:13.918Z,13.18
2022-11-09T01:41:01.257Z,13.25
2022-11-09T01:44:11.502Z,14.00
2022-11-09T01:47:04.729Z,14.10
2022-11-09T01:49:57.840Z,13.72
2022-11-09T01:52:47.863Z,16.48
2022-11-09T01:55:35.627Z,16.23
2022-11-09T01:58:26.313Z,13.50
2022-11-09T02:01:15.249Z,14.50
2022-11-09T02:04:14.547Z,17.90
2022-11-09T02:07:02.144Z,16.12
2022-11-09T02:10:01.664Z,13.08
2022-11-09T02:12:49.836Z,20.68
2022-11-09T02:15:41.489Z,19.90
2022-11-09T02:18:28.455Z,17.25
2022-11-09T02:21:15.850Z,17.92
2022-11-09T02:24:03.151Z,16.65
2022-11-09T02:26:52.674Z,18.52
2022-11-09T02:29:42.515Z,17.62
2022-11-09T02:32:30.944Z,15.55
2022-11-09T02:35:18.358Z,18.70
2022-11-09T02:38:09.556Z,17.05
2022-11-09T02:40:57.246Z,15.32
2022-11-09T02:43:44.475Z,16.93
2022-11-09T02:46:37.105Z,16.67
2022-11-09T02:49:23.853Z,16.93
2022-11-09T02:52:10.935Z,15.20
2022-11-09T02:54:58.443Z,20.35
2022-11-09T02:57:46.373Z,20.17
2022-11-09T03:00:33.579Z,17.73
2022-11-09T03:03:20.938Z,22.52
2022-11-09T03:06:08.574Z,20.40
2022-11-09T03:08:56.201Z,18.65
2022-11-09T03:11:43.950Z,21.42
2022-11-09T03:14:30.985Z,21.68
2022-11-09T03:17:18.531Z,20.55
2022-11-09T03:20:06.427Z,22.95
2022-11-09T03:22:56.987Z,22.65
2022-11-09T03:25:44.425Z,19.80
2022-11-09T03:28:31.640Z,18.85
2022-11-09T03:31:18.859Z,22.62
2022-11-09T03:34:06.107Z,24.23
2022-11-09T03:36:53.298Z,25.32
2022-11-09T03:39:40.879Z,17.40
2022-11-09T03:42:28.021Z,27.10
2022-11-09T03:45:16.678Z,18.90
2022-11-09T03:48:05.095Z,15.78
2022-11-09T03:50:52.225Z,20.17
2022-11-09T03:53:39.754Z,18.85
2022-11-09T03:56:27.267Z,21.35
2022-11-09T03:59:15.025Z,17.40
2022-11-09T04:02:02.255Z,19.62
2022-11-09T04:04:49.688Z,21.87
2022-11-09T04:07:37.900Z,18.37
2022-11-09T04:10:27.431Z,19.70
2022-11-09T04:13:14.926Z,16.25
2022-11-09T04:16:02.147Z,16.70
2022-11-09T04:18:49.217Z,16.07
2022-11-09T04:21:36.826Z,14.70
2022-11-09T04:24:24.036Z,16.67
2022-11-09T04:27:11.352Z,14.85
2022-11-09T04:29:58.675Z,21.45
2022-11-09T04:32:46.163Z,17.75
2022-11-09T04:35:34.707Z,18.73
2022-11-09T04:38:22.059Z,21.52
2022-11-09T04:41:09.602Z,20.23
2022-11-09T04:43:57.063Z,22.10
2022-11-09T04:46:44.265Z,26.77
2022-11-09T04:49:31.736Z,20.50
2022-11-09T04:52:19.375Z,17.77
2022-11-09T04:55:07.810Z,25.12
2022-11-09T04:57:54.751Z,24.40
2022-11-09T05:00:42.117Z,24.23
2022-11-09T05:03:29.651Z,24.92
2022-11-09T05:06:32.534Z,25.00
2022-11-09T05:09:19.905Z,26.15
2022-11-09T05:12:07.478Z,23.85
2022-11-09T05:14:55.005Z,23.98
2022-11-09T05:17:42.289Z,22.87
2022-11-09T05:20:31.165Z,24.00
2022-11-09T05:23:36.619Z,24.10
2022-11-09T05:26:24.136Z,23.92
2022-11-09T05:29:13.329Z,24.45
2022-11-09T05:32:00.568Z,24.27
2022-11-09T05:34:47.921Z,30.35
2022-11-09T05:37:35.073Z,28.20
2022-11-09T05:40:22.962Z,27.07
2022-11-09T05:43:11.205Z,24.18
2022-11-09T05:46:02.573Z,27.55
2022-11-09T05:48:48.276Z,26.65
2022-11-09T05:51:35.585Z,24.00
2022-11-09T05:54:23.124Z,22.00
2022-11-09T05:57:10.784Z,25.00
2022-11-09T05:59:58.651Z,27.17
2022-11-09T06:02:46.143Z,29.00
2022-11-09T06:05:35.391Z,22.65
2022-11-09T06:08:22.662Z,29.80
2022-11-09T06:11:13.851Z,29.25
2022-11-09T06:14:01.287Z,27.45
2022-11-09T06:16:48.762Z,26.35
2022-11-09T06:19:36.453Z,29.72
2022-11-09T06:22:23.931Z,32.55
2022-11-09T06:25:11.055Z,33.90
2022-11-09T06:27:58.479Z,29.92
2022-11-09T06:30:45.790Z,31.15
2022-11-09T06:33:34.799Z,33.83
2022-11-09T06:36:22.626Z,32.67
2022-11-09T06:39:10.151Z,29.45
2022-11-09T06:41:57.738Z,29.60
2022-11-09T06:44:45.176Z,30.12
2022-11-09T06:47:32.582Z,31.70
2022-11-09T06:50:19.871Z,29.80
2022-11-09T06:53:10.076Z,31.07
2022-11-09T06:56:05.438Z,34.30
2022-11-09T06:58:52.552Z,34.45
2022-11-09T07:01:39.692Z,33.90
2022-11-09T07:04:26.934Z,32.42
2022-11-09T07:07:14.061Z,32.50
2022-11-09T07:10:01.586Z,34.25
2022-11-09T07:12:49.495Z,31.80
2022-11-09T07:15:38.201Z,33.45
2022-11-09T07:18:25.234Z,34.33
2022-11-09T07:21:14.473Z,32.90
2022-11-09T07:24:02.044Z,31.87
2022-11-09T07:26:50.693Z,34.63
2022-11-09T07:29:38.024Z,39.60
2022-11-09T07:32:53.737Z,37.88
2022-11-09T07:35:14.162Z,34.00
2022-11-09T07:38:02.483Z,34.50
2022-11-09T07:40:49.882Z,37.35
2022-11-09T07:43:37.376Z,35.30
2022-11-09T07:46:24.850Z,38.78
2022-11-09T07:49:13.864Z,33.92
2022-11-09T07:52:01.321Z,36.60
2022-11-09T07:54:52.165Z,42.35
2022-11-09T07:57:37.928Z,38.08
2022-11-09T08:00:25.973Z,37.08
2022-11-09T08:03:13.667Z,42.65
2022-11-09T08:06:01.208Z,34.95
2022-11-09T08:08:49.472Z,40.17
2022-11-09T08:11:36.687Z,32.85
2022-11-09T08:14:24.160Z,36.58
2022-11-09T08:17:11.609Z,33.67
2022-11-09T08:19:59.024Z,39.00
2022-11-09T08:22:48.508Z,33.58
2022-11-09T08:25:36.790Z,35.70
2022-11-09T08:28:24.226Z,33.90
2022-11-09T08:31:11.403Z,34.18
2022-11-09T08:33:58.931Z,33.58
2022-11-09T08:36:45.895Z,34.23
2022-11-09T08:39:33.091Z,32.83
2022-11-09T08:42:20.315Z,33.60
2022-11-09T08:45:07.878Z,34.53
2022-11-09T08:47:59.860Z,33.92
2022-11-09T08:50:47.014Z,28.38
2022-11-09T08:53:34.323Z,31.25
2022-11-09T08:56:22.296Z,30.62
2022-11-09T08:59:09.709Z,30.25
2022-11-09T09:01:57.178Z,25.62
2022-11-09T09:04:45.266Z,22.93
2022-11-09T09:07:32.344Z,19.82
2022-11-09T09:10:19.397Z,19.85
2022-11-09T09:13:06.591Z,19.00
2022-11-09T09:15:54.173Z,24.50
2022-11-09T09:18:41.624Z,19.82
2022-11-09T09:21:29.093Z,19.77
2022-11-09T09:24:16.602Z,18.17
2022-11-09T09:27:04.513Z,15.40
2022-11-09T09:29:51.816Z,13.20
2022-11-09T09:32:39.242Z,13.90
2022-11-09T09:35:27.529Z,14.35
2022-11-09T09:38:15.108Z,13.95
2022-11-09T09:41:05.067Z,10.05
2022-11-09T09:43:55.295Z,13.22
2022-11-09T09:46:45.894Z,10.00
2022-11-09T09:49:36.549Z,9.10
2022-11-09T09:53:10.687Z,7.60
2022-11-09T09:55:44.562Z,9.75
2022-11-09T09:58:38.060Z,9.73
2022-11-09T10:01:27.184Z,8.95
2022-11-09T10:04:26.109Z,6.17
2022-11-09T10:07:25.050Z,8.28
2022-11-09T10:10:35.008Z,7.30
2022-11-09T10:13:43.531Z,7.25
2022-11-09T10:16:45.992Z,5.85
2022-11-09T10:20:09.885Z,5.85
2022-11-09T10:23:00.176Z,6.40
2022-11-09T10:26:03.978Z,4.60
2022-11-09T10:29:09.602Z,6.60
2022-11-09T10:31:34.786Z,3.98
2022-11-09T10:34:27.959Z,3.02
2022-11-09T10:37:27.033Z,4.55
2022-11-09T10:40:20.348Z,4.12
2022-11-09T10:43:13.823Z,4.17
2022-11-09T10:46:06.858Z,3.47
2022-11-09T10:48:55.806Z,4.60
2022-11-09T10:51:48.021Z,6.47
2022-11-09T10:54:38.002Z,5.70
2022-11-09T10:57:26.474Z,3.40
2022-11-09T11:00:19.124Z,3.15
2022-11-09T11:03:17.898Z,2.35
2022-11-09T11:06:20.374Z,2.98
2022-11-09T11:09:10.823Z,4.30
2022-11-09T11:12:13.349Z,3.90
2022-11-09T11:15:00.867Z,6.40
2022-11-09T11:17:48.562Z,3.58
2022-11-09T11:20:38.280Z,1.85
2022-11-09T11:23:27.030Z,3.55
2022-11-09T11:26:20.538Z,3.55
2022-11-09T11:29:34.767Z,4.17
2022-11-09T11:32:24.199Z,4.60
2022-11-09T11:35:17.673Z,2.65
2022-11-09T11:38:25.998Z,8.93
2022-11-09T11:41:16.394Z,2.98
2022-11-09T11:44:22.056Z,4.70
2022-11-09T11:47:30.853Z,4.53
2022-11-09T11:50:51.481Z,6.15
2022-11-09T11:53:54.289Z,2.00
2022-11-09T11:57:00.129Z,8.55
2022-11-09T11:59:59.638Z,4.50
2022-11-09T12:03:08.363Z,3.50
2022-11-09T12:06:01.370Z,1.87
2022-11-09T12:08:54.602Z,3.72
2022-11-09T12:11:52.011Z,4.00
2022-11-09T12:14:59.109Z,1.65
2022-11-09T12:17:52.290Z,2.42
2022-11-09T12:20:42.357Z,4.37
2022-11-09T12:23:50.973Z,5.72
2022-11-09T12:27:17.946Z,3.33
2022-11-09T12:29:48.303Z,2.72
2022-11-09T12:32:44.351Z,3.27
2022-11-09T12:35:53.181Z,2.33
2022-11-09T12:39:00.021Z,3.35
2022-11-09T12:41:49.165Z,4.83
2022-11-09T12:44:39.656Z,3.40
2022-11-09T12:47:36.387Z,4.78
2022-11-09T12:50:26.324Z,2.37
2022-11-09T12:53:14.100Z,3.47
2022-11-09T12:56:12.648Z,11.20
2022-11-09T12:59:31.782Z,4.90
2022-11-09T13:02:25.662Z,4.85
2022-11-09T13:05:38.697Z,3.22
2022-11-09T13:08:31.646Z,5.47
2022-11-09T13:11:25.050Z,7.60
2022-11-09T13:14:29.450Z,4.22
2022-11-09T13:17:25.664Z,5.30
2022-11-09T13:20:53.508Z,2.75
2022-11-09T13:24:01.323Z,5.03
2022-11-09T13:26:37.457Z,2.05
2022-11-09T13:29:30.402Z,3.62
2022-11-09T13:32:23.917Z,4.03
2022-11-09T13:35:14.203Z,3.40
2022-11-09T13:38:05.857Z,3.60
2022-11-09T13:40:52.635Z,3.27
2022-11-09T13:43:41.543Z,3.67
2022-11-09T13:46:35.104Z,6.65
2022-11-09T13:49:34.725Z,2.90
2022-11-09T13:52:50.916Z,5.35
2022-11-09T13:55:40.655Z,3.47
2022-11-09T13:58:36.797Z,5.20
2022-11-09T14:01:37.933Z,2.40
2022-11-09T14:04:33.754Z,5.28
2022-11-09T14:07:31.507Z,8.23
2022-11-09T14:10:44.886Z,8.93
2022-11-09T14:13:54.113Z,4.28
2022-11-09T14:17:05.307Z,4.00
2022-11-09T14:20:09.218Z,3.40
2022-11-09T14:22:53.309Z,4.72
2022-11-09T14:25:40.366Z,4.12
2022-11-09T14:28:33.925Z,6.50
2022-11-09T14:31:29.164Z,6.83
2022-11-09T14:34:18.144Z,7.22
2022-11-09T14:37:07.390Z,8.65
2022-11-09T14:39:54.671Z,3.62
2022-11-09T14:42:46.164Z,5.85
2022-11-09T14:45:32.532Z,6.03
2022-11-09T14:48:21.637Z,9.75
2022-11-09T14:51:13.496Z,6.12
2022-11-09T14:54:02.023Z,3.67
2022-11-09T14:56:49.717Z,6.22
2022-11-09T14:59:37.073Z,5.25
2022-11-09T15:02:25.352Z,4.42
2022-11-09T15:05:30.306Z,5.20
2022-11-09T15:08:23.069Z,5.90
2022-11-09T15:11:11.689Z,5.03
2022-11-09T15:13:58.652Z,3.70
2022-11-09T15:16:48.013Z,4.17
2022-11-09T15:19:41.333Z,3.77
2022-11-09T15:22:51.482Z,5.08
2022-11-09T15:25:41.720Z,7.75
2022-11-09T15:28:30.925Z,5.60
2022-11-09T15:31:19.463Z,4.95
2022-11-09T15:34:24.580Z,7.55
2022-11-09T15:37:26.997Z,6.08
2022-11-09T15:40:17.826Z,6.12
2022-11-09T15:43:05.406Z,5.95
2022-11-09T15:45:53.067Z,4.67
2022-11-09T15:48:45.583Z,5.15
2022-11-09T15:51:29.913Z,6.28
2022-11-09T15:54:17.775Z,5.33
2022-11-09T15:57:05.189Z,9.35
2022-11-09T15:59:52.901Z,3.72
2022-11-09T16:02:40.374Z,8.20
2022-11-09T16:05:28.112Z,5.85
2022-11-09T16:08:15.277Z,9.55
2022-11-09T16:11:05.171Z,8.73
2022-11-09T16:13:52.417Z,3.60
2022-11-09T16:16:39.602Z,7.47
2022-11-09T16:19:27.120Z,5.28
2022-11-09T16:22:14.418Z,5.80
2022-11-09T16:25:02.192Z,6.65
2022-11-09T16:27:50.849Z,6.40
2022-11-09T16:30:41.545Z,8.45
2022-11-09T16:33:27.090Z,5.87
2022-11-09T16:36:17.982Z,5.35
2022-11-09T16:39:09.438Z,10.85
2022-11-09T16:41:56.559Z,6.55
2022-11-09T16:44:46.263Z,5.37
2022-11-09T16:47:36.509Z,6.75
2022-11-09T16:50:25.218Z,7.95
2022-11-09T16:53:12.585Z,9.23
2022-11-09T16:56:00.089Z,5.20
2022-11-09T16:58:48.324Z,5.42
2022-11-09T17:01:35.923Z,9.35
2022-11-09T17:04:24.023Z,6.50
2022-11-09T17:07:12.251Z,6.97
2022-11-09T17:09:59.690Z,3.22
2022-11-09T17:12:47.130Z,6.05
2022-11-09T17:15:34.458Z,5.83
2022-11-09T17:18:22.111Z,5.40
2022-11-09T17:21:14.407Z,6.08
2022-11-09T17:24:02.254Z,7.22
2022-11-09T17:26:49.330Z,3.77
2022-11-09T17:29:38.547Z,7.55
2022-11-09T17:32:27.186Z,5.85
2022-11-09T17:35:14.369Z,5.28
2022-11-09T17:38:01.722Z,5.10
2022-11-09T17:40:49.205Z,2.87
2022-11-09T17:43:38.642Z,6.00
2022-11-09T17:46:26.196Z,3.87
2022-11-09T17:49:13.401Z,4.08
2022-11-09T17:52:00.818Z,8.35
2022-11-09T17:54:48.257Z,5.08
2022-11-09T17:57:35.717Z,7.00
2022-11-09T18:00:23.388Z,5.97
2022-11-09T18:03:11.167Z,5.60
2022-11-09T18:05:58.616Z,8.00
2022-11-09T18:08:58.308Z,3.77
2022-11-09T18:11:35.930Z,6.95
2022-11-09T18:14:23.108Z,2.80
2022-11-09T18:17:10.369Z,2.90
2022-11-09T18:19:57.740Z,5.60
2022-11-09T18:22:45.442Z,5.97
2022-11-09T18:25:32.477Z,5.75
2022-11-09T18:28:20.257Z,7.78
2022-11-09T18:31:10.692Z,9.45
2022-11-09T18:33:57.952Z,5.55
2022-11-09T18:36:45.044Z,8.40
2022-11-09T18:39:32.357Z,6.05
2022-11-09T18:42:19.679Z,11.90
2022-11-09T18:45:09.473Z,10.00
2022-11-09T18:47:57.519Z,9.13
2022-11-09T18:50:45.010Z,5.87
2022-11-09T18:53:37.883Z,6.12
2022-11-09T18:56:25.849Z,10.68
2022-11-09T18:59:13.274Z,10.80
2022-11-09T19:02:00.853Z,7.92
2022-11-09T19:04:48.185Z,6.72
2022-11-09T19:07:35.323Z,9.05
2022-11-09T19:10:22.819Z,7.85
2022-11-09T19:13:10.220Z,11.15
2022-11-09T19:15:58.501Z,7.78
2022-11-09T19:18:45.825Z,10.30
2022-11-09T19:21:39.845Z,6.17
2022-11-09T19:24:29.691Z,6.37
2022-11-09T19:27:17.217Z,6.37
2022-11-09T19:30:09.238Z,8.13
2022-11-09T19:32:53.780Z,13.08
2022-11-09T19:35:41.187Z,7.53
2022-11-09T19:38:28.600Z,5.45
2022-11-09T19:41:16.179Z,6.15
2022-11-09T19:44:06.240Z,8.85
2022-11-09T19:46:53.882Z,9.08
2022-11-09T19:49:41.070Z,9.10
2022-11-09T19:52:28.561Z,5.35
2022-11-09T19:55:16.153Z,10.00
2022-11-09T19:58:03.431Z,5.40
2022-11-09T20:00:51.027Z,11.12
2022-11-09T20:03:38.958Z,7.37
2022-11-09T20:06:26.809Z,7.65
2022-11-09T20:09:13.954Z,4.70
2022-11-09T20:12:19.337Z,6.87
2022-11-09T20:15:06.914Z,6.15
2022-11-09T20:17:54.333Z,11.85
2022-11-09T20:20:41.642Z,9.10
2022-11-09T20:23:30.103Z,7.58
2022-11-09T20:26:17.278Z,9.18
2022-11-09T20:29:04.465Z,11.97
2022-11-09T20:31:51.971Z,10.95
2022-11-09T20:34:39.400Z,9.18
2022-11-09T20:37:26.780Z,8.20
2022-11-09T20:40:14.036Z,6.50
2022-11-09T20:43:01.195Z,9.20
2022-11-09T20:45:48.262Z,10.10
2022-11-09T20:48:53.442Z,8.95
2022-11-09T20:51:25.405Z,7.22
2022-11-09T20:54:12.996Z,10.80
2022-11-09T20:57:00.557Z,12.53
2022-11-09T20:59:48.153Z,12.45
2022-11-09T21:02:35.820Z,8.98
2022-11-09T21:05:26.769Z,10.58
2022-11-09T21:08:14.215Z,7.55
2022-11-09T21:11:03.300Z,7.15
2022-11-09T21:13:56.154Z,14.00
2022-11-09T21:16:43.680Z,11.48
2022-11-09T21:19:32.873Z,11.53
2022-11-09T21:22:20.404Z,9.55
2022-11-09T21:25:27.033Z,10.80
2022-11-09T21:28:34.784Z,15.32
2022-11-09T21:31:24.947Z,13.53
2022-11-09T21:34:12.390Z,12.63
2022-11-09T21:36:59.639Z,10.82
2022-11-09T21:39:47.086Z,11.38
2022-11-09T21:42:34.297Z,15.00
2022-11-09T21:45:22.083Z,17.10
2022-11-09T21:48:12.845Z,11.03
2022-11-09T21:51:00.275Z,10.60
2022-11-09T21:56:51.423Z,11.08
2022-11-09T21:59:38.750Z,12.07
2022-11-09T22:02:26.231Z,12.90
2022-11-09T22:05:13.557Z,11.57
2022-11-09T22:08:01.073Z,8.83
2022-11-09T22:10:48.374Z,13.25
2022-11-09T22:13:54.200Z,13.53
2022-11-09T22:16:41.705Z,10.58
2022-11-09T22:19:47.183Z,8.10
2022-11-09T22:22:36.154Z,8.33
2022-11-09T22:25:23.394Z,13.62
2022-11-09T22:28:10.578Z,14.85
2022-11-09T22:30:59.356Z,13.58
2022-11-09T22:33:46.756Z,7.25
2022-11-09T22:36:33.977Z,13.58
2022-11-09T22:39:21.605Z,10.98
2022-11-09T22:42:08.935Z,11.85
2022-11-09T22:44:56.321Z,9.28
2022-11-09T22:47:43.828Z,13.98
2022-11-09T22:50:31.418Z,11.30
2022-11-09T22:53:19.447Z,7.42
2022-11-09T22:56:08.077Z,16.75
2022-11-09T22:58:55.321Z,10.35
2022-11-09T23:01:42.840Z,10.93
2022-11-09T23:04:30.065Z,10.20
2022-11-09T23:07:17.448Z,14.25
2022-11-09T23:10:04.948Z,9.83
2022-11-09T23:12:55.056Z,10.13
2022-11-09T23:15:42.598Z,11.22
2022-11-09T23:18:48.321Z,11.88
2022-11-09T23:21:37.997Z,15.60
2022-11-09T23:24:43.795Z,14.35
2022-11-09T23:27:31.302Z,11.03
2022-11-09T23:30:18.898Z,10.10
2022-11-09T23:33:06.347Z,10.68
2022-11-09T23:35:53.751Z,14.10
2022-11-09T23:38:41.249Z,12.82
2022-11-09T23:41:28.579Z,11.57
2022-11-09T23:44:15.945Z,14.55
2022-11-09T23:47:03.429Z,19.07
2022-11-09T23:49:52.869Z,13.58
2022-11-09T23:52:39.880Z,16.82
2022-11-09T23:55:28.193Z,18.55
2022-11-09T23:58:15.647Z,16.40
